createdAt,value
2018-06-02T00:00:06.668Z,91.80
2018-06-02T00:02:34.099Z,91.20
2018-06-02T00:05:01.547Z,91.20
2018-06-02T00:07:29.746Z,91.30
2018-06-02T00:09:57.193Z,91.30
2018-06-02T00:12:24.635Z,91.50
2018-06-02T00:14:52.836Z,91.20
2018-06-02T00:17:20.269Z,91.20
2018-06-02T00:19:47.718Z,91.20
2018-06-02T00:22:15.915Z,91.00
2018-06-02T00:24:43.359Z,91.00
2018-06-02T00:27:11.559Z,91.20
2018-06-02T00:29:39.011Z,91.10
2018-06-02T00:32:06.443Z,91.10
2018-06-02T00:34:34.658Z,91.70
2018-06-02T00:37:02.092Z,91.70
2018-06-02T00:39:29.534Z,92.50
2018-06-02T00:41:57.752Z,92.30
2018-06-02T00:44:25.192Z,92.30
2018-06-02T00:46:52.632Z,92.60
2018-06-02T00:49:20.080Z,92.60
2018-06-02T00:51:48.287Z,92.80
2018-06-02T00:54:15.722Z,92.80
2018-06-02T00:56:43.175Z,92.60
2018-06-02T00:59:10.610Z,92.70
2018-06-02T01:01:38.843Z,92.30
2018-06-02T01:04:06.281Z,92.00
2018-06-02T01:06:33.725Z,91.40
2018-06-02T01:09:01.922Z,92.00
2018-06-02T01:11:29.373Z,92.00
2018-06-02T01:13:56.802Z,91.60
2018-06-02T01:16:25.024Z,91.50
2018-06-02T01:18:52.456Z,91.50
2018-06-02T01:21:19.903Z,90.90
2018-06-02T01:23:47.338Z,91.30
2018-06-02T01:26:15.551Z,91.50
2018-06-02T01:28:42.997Z,91.50
2018-06-02T01:31:10.444Z,91.20
2018-06-02T01:33:38.642Z,92.20
2018-06-02T01:36:06.095Z,92.10
2018-06-02T01:38:33.523Z,92.90
2018-06-02T01:41:01.738Z,92.80
2018-06-02T01:43:29.178Z,92.80
2018-06-02T01:45:56.622Z,91.90
2018-06-02T01:48:24.067Z,92.60
2018-06-02T01:50:52.277Z,93.40
2018-06-02T01:53:19.712Z,93.30
2018-06-02T01:55:47.158Z,93.50
2018-06-02T01:58:15.370Z,93.80
2018-06-02T02:00:42.824Z,93.80
2018-06-02T02:03:10.259Z,93.90
2018-06-02T02:05:37.702Z,93.80
2018-06-02T02:08:05.914Z,94.20
2018-06-02T02:10:33.348Z,94.10
2018-06-02T02:13:00.795Z,94.00
2018-06-02T02:15:28.998Z,93.10
2018-06-02T02:17:56.452Z,93.10
2018-06-02T02:20:23.886Z,93.60
2018-06-02T02:22:52.098Z,93.00
2018-06-02T02:25:19.544Z,93.00
2018-06-02T02:27:46.991Z,93.80
2018-06-02T02:30:14.426Z,94.00
2018-06-02T02:32:42.641Z,94.10
2018-06-02T02:35:10.083Z,94.10
2018-06-02T02:37:37.528Z,93.80
2018-06-02T02:40:04.976Z,93.50
2018-06-02T02:42:33.186Z,93.40
2018-06-02T02:45:00.624Z,93.40
2018-06-02T02:47:28.070Z,93.00
2018-06-02T02:49:55.514Z,93.00
2018-06-02T02:52:23.730Z,92.80
2018-06-02T02:54:51.169Z,92.80
2018-06-02T02:57:18.612Z,93.60
2018-06-02T02:59:46.819Z,92.90
2018-06-02T03:02:14.265Z,92.90
2018-06-02T03:04:41.706Z,92.50
2018-06-02T03:07:09.141Z,92.70
2018-06-02T03:09:36.582Z,92.50
2018-06-02T03:12:04.020Z,93.10
2018-06-02T03:14:31.457Z,93.00
2018-06-02T03:16:58.889Z,92.80
2018-06-02T03:19:27.106Z,92.80
2018-06-02T03:21:54.537Z,92.80
2018-06-02T03:24:21.994Z,92.90
2018-06-02T03:26:49.433Z,92.90
2018-06-02T03:29:17.639Z,92.90
2018-06-02T03:31:45.911Z,92.90
2018-06-02T03:34:13.343Z,93.70
2018-06-02T03:36:41.543Z,94.10
2018-06-02T03:39:08.988Z,94.10
2018-06-02T03:41:36.422Z,94.30
2018-06-02T03:44:04.631Z,93.20
2018-06-02T03:46:32.066Z,93.20
2018-06-02T03:49:00.272Z,94.00
2018-06-02T03:51:27.706Z,94.00
2018-06-02T03:53:55.158Z,94.20
2018-06-02T03:56:22.594Z,94.30
2018-06-02T03:58:50.807Z,94.40
2018-06-02T04:01:18.247Z,94.40
2018-06-02T04:03:45.692Z,94.30
2018-06-02T04:06:13.897Z,94.50
2018-06-02T04:08:41.334Z,94.40
2018-06-02T04:11:09.539Z,94.10
2018-06-02T04:13:36.988Z,94.10
2018-06-02T04:16:04.417Z,93.90
2018-06-02T04:18:32.633Z,94.20
2018-06-02T04:21:00.090Z,94.20
2018-06-02T04:23:27.517Z,94.20
2018-06-02T04:25:54.979Z,94.30
2018-06-02T04:28:23.181Z,94.30
2018-06-02T04:30:50.625Z,94.30
2018-06-02T04:33:18.066Z,93.90
2018-06-02T04:35:45.516Z,94.20
2018-06-02T04:38:13.723Z,93.70
2018-06-02T04:40:41.168Z,93.70
2018-06-02T04:43:08.606Z,93.60
2018-06-02T04:45:36.053Z,94.00
2018-06-02T04:48:04.275Z,93.30
2018-06-02T04:50:31.729Z,93.30
2018-06-02T04:52:59.172Z,93.40
2018-06-02T04:55:26.611Z,93.70
2018-06-02T04:57:54.054Z,94.10
2018-06-02T05:00:21.494Z,94.20
2018-06-02T05:02:48.934Z,94.30
2018-06-02T05:05:16.375Z,94.20
2018-06-02T05:07:43.819Z,93.60
2018-06-02T05:10:11.251Z,93.30
2018-06-02T05:12:39.461Z,92.60
2018-06-02T05:15:06.942Z,92.60
2018-06-02T05:17:34.350Z,93.10
2018-06-02T05:20:01.796Z,93.10
2018-06-02T05:22:29.986Z,93.10
2018-06-02T05:24:57.435Z,93.10
2018-06-02T05:27:24.879Z,93.10
2018-06-02T05:29:53.096Z,92.80
2018-06-02T05:32:20.533Z,92.80
2018-06-02T05:34:47.962Z,92.90
2018-06-02T05:37:16.176Z,92.00
2018-06-02T05:39:43.610Z,92.00
2018-06-02T05:42:11.058Z,91.90
2018-06-02T05:44:39.262Z,91.10
2018-06-02T05:47:06.708Z,91.10
2018-06-02T05:49:34.142Z,90.20
2018-06-02T05:52:02.357Z,90.10
2018-06-02T05:54:29.793Z,90.10
2018-06-02T05:56:57.243Z,90.00
2018-06-02T05:59:25.438Z,89.80
2018-06-02T06:01:52.883Z,89.70
2018-06-02T06:04:20.316Z,90.20
2018-06-02T06:06:48.521Z,90.90
2018-06-02T06:09:15.959Z,90.90
2018-06-02T06:11:44.174Z,91.10
2018-06-02T06:14:11.617Z,91.10
2018-06-02T06:16:39.063Z,90.90
2018-06-02T06:19:06.497Z,90.70
2018-06-02T06:21:34.710Z,90.20
2018-06-02T06:24:02.157Z,90.20
2018-06-02T06:26:29.598Z,90.00
2018-06-02T06:28:57.796Z,90.00
2018-06-02T06:31:25.242Z,90.00
2018-06-02T06:33:53.451Z,87.00
2018-06-02T06:36:20.898Z,86.90
2018-06-02T06:38:48.335Z,88.40
2018-06-02T06:41:15.786Z,86.70
2018-06-02T06:43:43.223Z,88.80
2018-06-02T06:46:10.670Z,86.70
2018-06-02T06:48:38.123Z,84.30
2018-06-02T06:51:05.559Z,81.70
2018-06-02T06:53:33.016Z,81.80
2018-06-02T06:56:00.470Z,82.50
2018-06-02T06:58:27.908Z,81.70
2018-06-02T07:00:55.352Z,82.10
2018-06-02T07:03:22.790Z,82.90
2018-06-02T07:05:50.989Z,82.60
2018-06-02T07:08:18.434Z,82.60
2018-06-02T07:10:45.871Z,82.20
2018-06-02T07:13:14.084Z,82.40
2018-06-02T07:15:41.549Z,82.40
2018-06-02T07:18:08.978Z,82.70
2018-06-02T07:20:37.169Z,80.60
2018-06-02T07:23:04.609Z,80.50
2018-06-02T07:25:32.054Z,81.10
2018-06-02T07:28:00.265Z,82.20
2018-06-02T07:30:27.708Z,82.20
2018-06-02T07:32:55.154Z,81.80
2018-06-02T07:35:22.591Z,81.70
2018-06-02T07:37:50.807Z,81.50
2018-06-02T07:40:18.253Z,81.50
2018-06-02T07:42:45.707Z,80.30
2018-06-02T07:45:13.138Z,80.60
2018-06-02T07:47:41.353Z,81.70
2018-06-02T07:50:08.823Z,81.10
2018-06-02T07:52:36.994Z,78.20
2018-06-02T07:55:04.431Z,78.10
2018-06-02T07:57:31.907Z,78.80
2018-06-02T08:00:00.079Z,78.10
2018-06-02T08:02:27.517Z,78.00
2018-06-02T08:04:54.959Z,78.50
2018-06-02T08:07:23.167Z,78.70
2018-06-02T08:09:50.608Z,78.70
2018-06-02T08:12:18.050Z,78.40
2018-06-02T08:14:46.259Z,78.00
2018-06-02T08:17:13.757Z,78.00
2018-06-02T08:19:41.212Z,77.50
2018-06-02T08:22:08.642Z,75.30
2018-06-02T08:24:36.101Z,76.10
2018-06-02T08:27:03.535Z,75.50
2018-06-02T08:29:30.989Z,75.90
2018-06-02T08:31:58.430Z,70.70
2018-06-02T08:34:26.635Z,71.90
2018-06-02T08:36:54.071Z,71.90
2018-06-02T08:39:21.517Z,70.70
2018-06-02T08:41:49.714Z,70.00
2018-06-02T08:44:17.170Z,69.90
2018-06-02T08:46:44.603Z,69.60
2018-06-02T08:49:12.814Z,69.40
2018-06-02T08:51:40.253Z,69.40
2018-06-02T08:54:07.700Z,69.70
2018-06-02T08:56:35.137Z,69.00
2018-06-02T08:59:02.594Z,68.40
2018-06-02T09:01:30.033Z,68.00
2018-06-02T09:03:57.494Z,65.10
2018-06-02T09:06:24.927Z,65.10
2018-06-02T09:08:52.358Z,62.30
2018-06-02T09:11:19.815Z,63.90
2018-06-02T09:13:47.255Z,62.60
2018-06-02T09:16:15.468Z,60.90
2018-06-02T09:18:42.910Z,61.50
2018-06-02T09:21:10.350Z,62.10
2018-06-02T09:23:37.783Z,60.90
2018-06-02T09:26:06.001Z,61.90
2018-06-02T09:28:33.445Z,61.80
2018-06-02T09:31:00.910Z,63.30
2018-06-02T09:33:28.347Z,60.10
2018-06-02T09:35:55.796Z,59.10
2018-06-02T09:38:24.079Z,57.60
2018-06-02T09:40:52.353Z,54.60
2018-06-02T09:43:19.814Z,54.50
2018-06-02T09:45:48.103Z,58.90
2018-06-02T09:48:15.535Z,58.70
2018-06-02T09:50:43.743Z,59.30
2018-06-02T09:53:11.180Z,59.20
2018-06-02T09:55:38.622Z,54.80
2018-06-02T09:58:06.850Z,57.20
2018-06-02T10:00:37.198Z,57.20
2018-06-02T10:03:04.633Z,55.80
2018-06-02T10:05:32.079Z,55.80
2018-06-02T10:07:59.567Z,55.90
2018-06-02T10:10:27.023Z,55.60
2018-06-02T10:12:54.457Z,58.90
2018-06-02T10:15:21.898Z,59.10
2018-06-02T10:17:49.330Z,56.40
2018-06-02T10:20:17.535Z,58.70
2018-06-02T10:22:44.984Z,58.60
2018-06-02T10:25:12.439Z,59.00
2018-06-02T10:27:39.878Z,60.10
2018-06-02T10:30:08.083Z,60.00
2018-06-02T10:32:35.534Z,59.90
2018-06-02T10:35:02.963Z,61.20
2018-06-02T10:37:31.171Z,58.50
2018-06-02T10:39:58.603Z,58.50
2018-06-02T10:42:26.834Z,59.50
2018-06-02T10:44:54.278Z,59.40
2018-06-02T10:47:21.720Z,58.60
2018-06-02T10:49:49.150Z,61.30
2018-06-02T10:52:16.599Z,58.30
2018-06-02T10:54:44.803Z,60.20
2018-06-02T10:57:12.251Z,60.00
2018-06-02T10:59:39.700Z,59.10
2018-06-02T11:02:07.906Z,61.80
2018-06-02T11:04:35.346Z,61.70
2018-06-02T11:07:02.786Z,62.00
2018-06-02T11:09:30.934Z,63.50
2018-06-02T11:12:00.041Z,64.20
2018-06-02T11:14:27.545Z,58.50
2018-06-02T11:16:55.011Z,59.70
2018-06-02T11:19:23.261Z,57.60
2018-06-02T11:21:51.846Z,57.40
2018-06-02T11:24:20.173Z,54.90
2018-06-02T11:26:47.623Z,54.80
2018-06-02T11:29:15.077Z,57.80
2018-06-02T11:31:42.527Z,55.10
2018-06-02T11:34:09.975Z,56.40
2018-06-02T11:36:37.437Z,53.20
2018-06-02T11:39:05.686Z,55.40
2018-06-02T11:41:33.121Z,52.90
2018-06-02T11:44:01.366Z,55.60
2018-06-02T11:46:28.769Z,55.40
2018-06-02T11:48:56.981Z,54.40
2018-06-02T11:51:24.422Z,54.30
2018-06-02T11:53:51.871Z,54.90
2018-06-02T11:56:19.319Z,55.30
2018-06-02T11:58:46.763Z,57.00
2018-06-02T12:01:14.971Z,56.80
2018-06-02T12:03:42.425Z,56.80
2018-06-02T12:06:09.863Z,56.20
2018-06-02T12:08:38.078Z,54.30
2018-06-02T12:11:05.509Z,54.20
2018-06-02T12:13:32.953Z,54.40
2018-06-02T12:16:01.159Z,54.50
2018-06-02T12:18:28.602Z,54.40
2018-06-02T12:20:56.040Z,54.40
2018-06-02T12:23:24.254Z,54.70
2018-06-02T12:25:51.692Z,54.70
2018-06-02T12:28:19.212Z,52.60
2018-06-02T12:30:46.583Z,53.50
2018-06-02T12:33:14.803Z,55.40
2018-06-02T12:35:42.230Z,55.40
2018-06-02T12:38:09.684Z,55.70
2018-06-02T12:40:37.883Z,56.00
2018-06-02T12:43:05.327Z,56.00
2018-06-02T12:45:32.772Z,55.00
2018-06-02T12:48:00.220Z,56.00
2018-06-02T12:50:28.428Z,52.60
2018-06-02T12:52:55.872Z,52.50
2018-06-02T12:55:23.317Z,53.40
2018-06-02T12:57:50.754Z,53.10
2018-06-02T13:00:18.972Z,55.80
2018-06-02T13:02:46.406Z,55.70
2018-06-02T13:05:13.862Z,55.10
2018-06-02T13:07:42.054Z,55.80
2018-06-02T13:10:09.499Z,55.70
2018-06-02T13:12:36.935Z,58.10
2018-06-02T13:15:05.149Z,58.20
2018-06-02T13:17:32.586Z,58.10
2018-06-02T13:20:00.022Z,58.20
2018-06-02T13:22:28.228Z,60.80
2018-06-02T13:24:55.680Z,60.80
2018-06-02T13:27:23.121Z,59.60
2018-06-02T13:29:50.586Z,59.50
2018-06-02T13:32:18.019Z,60.80
2018-06-02T13:34:46.231Z,61.60
2018-06-02T13:37:13.690Z,61.40
2018-06-02T13:39:41.133Z,61.40
2018-06-02T13:42:08.569Z,61.40
2018-06-02T13:44:36.790Z,61.70
2018-06-02T13:47:04.232Z,61.60
2018-06-02T13:49:31.668Z,61.70
2018-06-02T13:51:59.888Z,60.90
2018-06-02T13:54:27.315Z,60.80
2018-06-02T13:56:54.761Z,60.50
2018-06-02T13:59:22.204Z,61.10
2018-06-02T14:01:50.417Z,60.60
2018-06-02T14:04:17.842Z,60.40
2018-06-02T14:06:46.051Z,62.30
2018-06-02T14:09:13.490Z,62.30
2018-06-02T14:11:40.930Z,62.20
2018-06-02T14:14:09.138Z,60.60
2018-06-02T14:16:36.583Z,60.50
2018-06-02T14:19:04.018Z,61.10
2018-06-02T14:21:32.232Z,59.80
2018-06-02T14:23:59.672Z,59.80
2018-06-02T14:26:27.117Z,60.20
2018-06-02T14:28:55.320Z,60.20
2018-06-02T14:31:22.763Z,60.20
2018-06-02T14:33:50.216Z,60.80
2018-06-02T14:36:17.669Z,59.20
2018-06-02T14:38:45.110Z,61.10
2018-06-02T14:41:13.328Z,61.60
2018-06-02T14:43:40.833Z,61.60
2018-06-02T14:46:08.214Z,61.40
2018-06-02T14:48:35.648Z,60.50
2018-06-02T14:51:03.861Z,61.30
2018-06-02T14:53:31.294Z,61.70
2018-06-02T14:55:59.519Z,60.30
2018-06-02T14:58:26.954Z,60.30
2018-06-02T15:00:54.402Z,59.30
2018-06-02T15:03:21.842Z,59.70
2018-06-02T15:05:50.069Z,60.50
2018-06-02T15:08:17.516Z,60.40
2018-06-02T15:10:44.959Z,60.10
2018-06-02T15:13:12.409Z,60.30
2018-06-02T15:15:39.832Z,59.80
2018-06-02T15:18:08.047Z,60.10
2018-06-02T15:20:35.487Z,59.40
2018-06-02T15:23:02.939Z,59.10
2018-06-02T15:25:30.370Z,59.10
2018-06-02T15:27:57.818Z,59.50
2018-06-02T15:30:25.270Z,58.10
2018-06-02T15:32:52.715Z,57.50
2018-06-02T15:35:20.151Z,57.50
2018-06-02T15:37:47.608Z,58.30
2018-06-02T15:40:15.044Z,58.80
2018-06-02T15:42:43.256Z,57.10
2018-06-02T15:45:10.691Z,57.10
2018-06-02T15:47:38.138Z,57.40
2018-06-02T15:50:05.569Z,57.90
2018-06-02T15:52:33.790Z,57.40
2018-06-02T15:55:01.223Z,57.30
2018-06-02T15:57:29.434Z,57.80
2018-06-02T15:59:56.876Z,57.80
2018-06-02T16:02:24.310Z,57.20
2018-06-02T16:04:51.767Z,57.40
2018-06-02T16:07:19.966Z,57.40
2018-06-02T16:09:47.414Z,57.30
2018-06-02T16:12:14.854Z,57.20
2018-06-02T16:14:43.066Z,57.40
2018-06-02T16:17:10.513Z,57.40
2018-06-02T16:19:37.947Z,57.50
2018-06-02T16:22:06.150Z,57.90
2018-06-02T16:24:33.590Z,57.90
2018-06-02T16:27:01.033Z,57.10
2018-06-02T16:29:29.250Z,57.40
2018-06-02T16:31:56.691Z,57.30
2018-06-02T16:34:24.135Z,57.20
2018-06-02T16:36:51.570Z,57.10
2018-06-02T16:39:19.804Z,58.60
2018-06-02T16:41:47.230Z,58.60
2018-06-02T16:44:14.678Z,57.70
2018-06-02T16:46:42.127Z,57.90
2018-06-02T16:49:10.354Z,57.30
2018-06-02T16:52:00.379Z,57.20
2018-06-02T16:54:28.668Z,57.60
2018-06-02T16:56:56.871Z,58.30
2018-06-02T16:59:24.325Z,58.20
2018-06-02T17:01:51.765Z,58.90
2018-06-02T17:04:19.211Z,58.90
2018-06-02T17:06:47.421Z,59.50
2018-06-02T17:09:15.787Z,59.50
2018-06-02T17:11:43.222Z,59.50
2018-06-02T17:14:11.526Z,59.30
2018-06-02T17:16:38.950Z,59.20
2018-06-02T17:19:07.166Z,59.10
2018-06-02T17:21:34.605Z,59.20
2018-06-02T17:24:02.048Z,58.90
2018-06-02T17:26:30.360Z,59.00
2018-06-02T17:28:57.801Z,59.00
2018-06-02T17:31:25.238Z,59.20
2018-06-02T17:33:53.494Z,60.60
2018-06-02T17:36:20.919Z,60.60
2018-06-02T17:38:48.361Z,61.00
2018-06-02T17:41:15.803Z,61.00
2018-06-02T17:43:43.251Z,61.40
2018-06-02T17:46:10.691Z,61.10
2018-06-02T17:48:38.914Z,61.20
2018-06-02T17:51:06.367Z,61.20
2018-06-02T17:53:33.798Z,62.00
2018-06-02T17:56:01.245Z,61.70
2018-06-02T17:58:29.456Z,62.20
2018-06-02T18:00:56.911Z,62.00
2018-06-02T18:03:24.345Z,62.50
2018-06-02T18:05:51.859Z,61.40
2018-06-02T18:08:19.311Z,62.10
2018-06-02T18:10:46.754Z,62.50
2018-06-02T18:13:14.211Z,62.30
2018-06-02T18:15:41.638Z,62.60
2018-06-02T18:18:09.076Z,63.10
2018-06-02T18:20:37.293Z,63.00
2018-06-02T18:23:04.729Z,62.80
2018-06-02T18:25:32.175Z,62.90
2018-06-02T18:27:59.620Z,62.70
2018-06-02T18:30:27.867Z,62.60
2018-06-02T18:32:55.333Z,62.50
2018-06-02T18:35:22.790Z,64.70
2018-06-02T18:37:50.219Z,63.10
2018-06-02T18:40:17.679Z,62.80
2018-06-02T18:42:45.175Z,62.90
2018-06-02T18:45:12.703Z,63.60
2018-06-02T18:47:40.156Z,64.90
2018-06-02T18:50:07.582Z,65.10
2018-06-02T18:52:35.031Z,64.90
2018-06-02T18:55:02.479Z,65.00
2018-06-02T18:57:30.686Z,65.50
2018-06-02T18:59:58.138Z,65.50
2018-06-02T19:02:25.587Z,66.60
2018-06-02T19:04:53.026Z,66.00
2018-06-02T19:07:21.256Z,67.30
2018-06-02T19:09:48.675Z,67.30
2018-06-02T19:12:16.118Z,67.40
2018-06-02T19:14:43.553Z,70.30
2018-06-02T19:17:11.763Z,70.50
2018-06-02T19:19:39.206Z,70.50
2018-06-02T19:22:07.418Z,71.60
2018-06-02T19:24:34.868Z,71.60
2018-06-02T19:27:02.314Z,73.20
2018-06-02T19:29:30.140Z,71.90
2018-06-02T19:31:57.599Z,73.20
2018-06-02T19:34:25.211Z,73.20
2018-06-02T19:36:53.171Z,74.80
2018-06-02T19:39:20.620Z,73.60
2018-06-02T19:41:48.236Z,72.60
2018-06-02T19:44:15.685Z,73.00
2018-06-02T19:46:43.135Z,71.70
2018-06-02T19:49:10.578Z,73.10
2018-06-02T19:51:38.015Z,74.00
2018-06-02T19:54:05.473Z,73.10
2018-06-02T19:56:32.940Z,73.20
2018-06-02T19:59:00.394Z,72.70
2018-06-02T20:01:27.906Z,72.00
2018-06-02T20:03:55.276Z,72.90
2018-06-02T20:06:23.561Z,73.20
2018-06-02T20:08:51.043Z,73.20
2018-06-02T20:11:18.478Z,73.60
2018-06-02T20:13:45.927Z,73.70
2018-06-02T20:16:14.133Z,75.30
2018-06-02T20:18:41.576Z,75.30
2018-06-02T20:21:09.020Z,76.20
2018-06-02T20:23:36.466Z,76.80
2018-06-02T20:26:04.670Z,75.90
2018-06-02T20:28:32.121Z,75.80
2018-06-02T20:30:59.554Z,76.70
2018-06-02T20:33:27.762Z,76.70
2018-06-02T20:35:55.215Z,76.60
2018-06-02T20:38:22.667Z,77.30
2018-06-02T20:40:50.093Z,77.10
2018-06-02T20:43:18.310Z,78.40
2018-06-02T20:45:45.743Z,78.40
2018-06-02T20:48:13.191Z,79.20
2018-06-02T20:50:41.400Z,78.80
2018-06-02T20:53:08.894Z,78.80
2018-06-02T20:55:36.303Z,78.20
2018-06-02T20:58:03.752Z,78.20
2018-06-02T21:00:31.195Z,79.30
2018-06-02T21:02:59.394Z,81.00
2018-06-02T21:05:26.834Z,80.90
2018-06-02T21:07:54.301Z,79.90
2018-06-02T21:10:21.715Z,81.40
2018-06-02T21:12:49.148Z,81.90
2018-06-02T21:15:16.599Z,80.80
2018-06-02T21:17:44.039Z,81.60
2018-06-02T21:20:11.483Z,82.50
2018-06-02T21:22:38.957Z,81.30
2018-06-02T21:25:07.127Z,84.00
2018-06-02T21:27:34.561Z,83.90
2018-06-02T21:30:02.772Z,85.10
2018-06-02T21:32:30.213Z,85.00
2018-06-02T21:34:57.658Z,84.40
2018-06-02T21:37:25.104Z,84.50
2018-06-02T21:39:53.324Z,86.60
2018-06-02T21:42:20.767Z,86.50
2018-06-02T21:44:48.222Z,86.50
2018-06-02T21:47:15.651Z,86.60
2018-06-02T21:49:43.861Z,86.30
2018-06-02T21:52:11.301Z,86.30
2018-06-02T21:54:38.752Z,87.20
2018-06-02T21:57:06.185Z,87.70
2018-06-02T21:59:34.396Z,87.10
2018-06-02T22:02:01.840Z,87.10
2018-06-02T22:04:29.290Z,85.20
2018-06-02T22:06:56.733Z,87.20
2018-06-02T22:09:24.965Z,89.50
2018-06-02T22:11:52.404Z,89.40
2018-06-02T22:14:19.849Z,89.10
2018-06-02T22:16:47.295Z,89.70
2018-06-02T22:19:14.731Z,88.40
2018-06-02T22:21:42.943Z,88.50
2018-06-02T22:24:10.410Z,87.70
2018-06-02T22:26:37.862Z,86.90
2018-06-02T22:29:05.311Z,87.40
2018-06-02T22:31:32.763Z,88.80
2018-06-02T22:34:00.206Z,89.80
2018-06-02T22:36:28.423Z,88.70
2018-06-02T22:38:55.855Z,88.70
2018-06-02T22:41:23.294Z,88.40
2018-06-02T22:43:51.501Z,89.80
2018-06-02T22:46:18.947Z,89.70
2018-06-02T22:48:46.392Z,90.10
2018-06-02T22:51:14.603Z,90.10
2018-06-02T22:53:42.047Z,90.10
2018-06-02T22:56:09.499Z,89.00
2018-06-02T22:58:36.946Z,88.50
2018-06-02T23:01:04.391Z,90.00
2018-06-02T23:03:32.592Z,90.60
2018-06-02T23:06:00.054Z,90.60
2018-06-02T23:08:27.483Z,90.50
2018-06-02T23:10:54.934Z,90.50
2018-06-02T23:13:23.135Z,90.20
2018-06-02T23:15:50.851Z,90.20
2018-06-02T23:18:19.079Z,90.00
2018-06-02T23:20:46.534Z,90.00
2018-06-02T23:23:13.974Z,90.60
2018-06-02T23:25:41.417Z,90.80
2018-06-02T23:28:09.638Z,90.00
2018-06-02T23:30:37.069Z,90.00
2018-06-02T23:33:04.522Z,90.40
2018-06-02T23:35:31.964Z,90.70
2018-06-02T23:38:00.174Z,91.00
2018-06-02T23:40:27.609Z,90.90
2018-06-02T23:42:55.111Z,90.90
2018-06-02T23:45:23.266Z,91.20
2018-06-02T23:47:50.744Z,91.20
2018-06-02T23:50:18.172Z,91.30
2018-06-02T23:52:45.621Z,91.20
2018-06-02T23:55:13.218Z,91.50
2018-06-02T23:57:40.658Z,91.40
